Time;durP1;ratioP1;P1;durP2;ratioP2;P2;SDS_P1;SDS_P2;PMS_P1;PMS_P2;Temp;Humidity;BMP_temperature;BMP_pressure;BME280_temperature;BME280_humidity;BME280_pressure;Samples;Min_cycle;Max_cycle;Signal;HPM_P1;HPM_P2
2023/11/19 00:02:21;;;;;;;62.03;30.38;;;11.40;99.90;;;;;;5068931;28;20487;-69
2023/11/19 00:04:47;;;;;;;81.60;31.98;;;11.40;99.90;;;;;;5067619;28;20044;-69
2023/11/19 00:07:13;;;;;;;72.00;30.85;;;11.70;99.90;;;;;;5066158;28;20147;-69
2023/11/19 00:09:40;;;;;;;61.25;29.13;;;11.50;99.90;;;;;;5066463;28;20115;-69
2023/11/19 00:12:06;;;;;;;67.50;30.67;;;11.50;99.90;;;;;;5069675;28;20036;-69
2023/11/19 00:14:32;;;;;;;60.83;29.67;;;11.60;99.90;;;;;;5069522;28;20036;-69
2023/11/19 00:16:58;;;;;;;53.65;28.73;;;11.60;99.90;;;;;;5066775;28;20514;-69
2023/11/19 00:19:24;;;;;;;58.55;28.45;;;11.60;99.90;;;;;;5065879;28;20040;-68
2023/11/19 00:21:49;;;;;;;54.60;26.35;;;11.60;99.90;;;;;;5067525;28;20048;-68
2023/11/19 00:24:18;;;;;;;53.08;25.42;;;12.00;99.90;;;;;;5068622;28;20052;-68
2023/11/19 00:26:44;;;;;;;56.88;26.42;;;11.70;99.90;;;;;;5096752;28;20497;-68
2023/11/19 00:29:10;;;;;;;55.47;25.63;;;11.70;99.90;;;;;;5066450;28;20040;-68
2023/11/19 00:31:36;;;;;;;53.30;24.90;;;11.70;99.90;;;;;;5067524;28;20048;-69
2023/11/19 00:34:02;;;;;;;52.08;23.15;;;11.70;99.90;;;;;;5068013;28;20513;-68
2023/11/19 00:36:28;;;;;;;53.83;21.85;;;11.70;99.90;;;;;;5067351;28;20044;-68
2023/11/19 00:38:54;;;;;;;57.67;21.70;;;11.70;99.90;;;;;;5064974;28;20130;-68
2023/11/19 00:41:20;;;;;;;50.42;19.45;;;11.80;99.90;;;;;;5067230;28;20139;-69
2023/11/19 00:43:46;;;;;;;52.33;20.75;;;11.80;99.90;;;;;;5068524;28;20134;-68
2023/11/19 00:46:13;;;;;;;48.08;17.95;;;11.80;99.90;;;;;;5067518;28;20087;-68
2023/11/19 00:48:39;;;;;;;44.58;15.48;;;11.70;99.90;;;;;;5066482;28;20407;-69
2023/11/19 00:51:05;;;;;;;50.10;14.65;;;11.70;99.90;;;;;;5067122;28;20041;-69
2023/11/19 00:53:32;;;;;;;38.72;13.15;;;11.80;99.90;;;;;;5098341;28;20047;-69
2023/11/19 00:55:57;;;;;;;38.15;11.38;;;11.80;99.90;;;;;;5067437;28;20055;-68
2023/11/19 00:58:23;;;;;;;40.38;11.10;;;11.70;99.90;;;;;;5066321;28;20115;-68
2023/11/19 01:00:49;;;;;;;35.80;9.68;;;12.00;99.90;;;;;;5066414;28;20430;-68
2023/11/19 01:03:15;;;;;;;35.42;9.15;;;11.70;99.90;;;;;;5096256;28;20455;-68
2023/11/19 01:05:41;;;;;;;43.97;8.88;;;11.80;99.90;;;;;;5068235;28;20045;-69
2023/11/19 01:08:07;;;;;;;39.03;7.82;;;11.80;99.90;;;;;;5061698;28;20041;-68
2023/11/19 01:10:33;;;;;;;41.08;8.05;;;11.80;99.90;;;;;;5066320;28;20040;-68
2023/11/19 01:12:59;;;;;;;40.42;7.85;;;11.80;99.90;;;;;;5069230;28;20056;-68
2023/11/19 01:15:25;;;;;;;37.50;7.80;;;11.90;99.90;;;;;;5070583;28;20075;-68
2023/11/19 01:17:52;;;;;;;35.35;7.18;;;11.90;99.90;;;;;;5071805;28;20044;-68
2023/11/19 01:20:18;;;;;;;32.05;7.00;;;11.90;99.90;;;;;;5071590;28;20040;-68
2023/11/19 01:22:44;;;;;;;35.40;7.95;;;11.90;99.90;;;;;;5071166;28;20052;-68
2023/11/19 01:25:10;;;;;;;33.05;6.93;;;12.30;99.90;;;;;;5067317;28;20094;-68
2023/11/19 01:27:36;;;;;;;38.30;6.32;;;12.00;99.90;;;;;;5070552;28;20483;-69
2023/11/19 01:30:05;;;;;;;42.22;6.70;;;12.00;99.90;;;;;;5070129;28;20040;-68
2023/11/19 01:32:31;;;;;;;31.63;5.97;;;12.00;99.90;;;;;;5071300;28;20041;-68
2023/11/19 01:34:57;;;;;;;36.60;7.03;;;12.00;99.90;;;;;;5070524;28;20040;-68
2023/11/19 01:37:23;;;;;;;32.90;6.90;;;12.00;99.90;;;;;;5069999;28;20045;-69
2023/11/19 01:39:49;;;;;;;34.53;5.95;;;12.00;99.90;;;;;;5068756;28;20048;-69
2023/11/19 01:42:15;;;;;;;35.08;7.05;;;12.00;99.90;;;;;;5071674;28;20708;-69
2023/11/19 01:44:41;;;;;;;32.53;6.68;;;12.00;99.90;;;;;;5067234;28;20568;-69
2023/11/19 01:47:08;;;;;;;43.05;6.85;;;12.10;99.90;;;;;;5068632;28;20036;-68
2023/11/19 01:49:34;;;;;;;37.80;6.13;;;12.10;99.90;;;;;;5071024;28;20033;-68
2023/11/19 01:52:00;;;;;;;35.78;6.03;;;12.00;99.90;;;;;;5101568;28;20124;-68
2023/11/19 01:54:27;;;;;;;40.65;6.90;;;12.20;99.90;;;;;;5065663;28;20033;-68
2023/11/19 01:56:56;;;;;;;34.58;5.95;;;12.00;99.90;;;;;;5070047;28;20041;-68
2023/11/19 01:59:26;;;;;;;30.75;6.57;;;12.00;99.90;;;;;;5069602;28;20052;-68
2023/11/19 02:01:55;;;;;;;43.13;6.38;;;12.00;99.90;;;;;;5069977;28;20051;-68
2023/11/19 02:04:21;;;;;;;33.33;5.22;;;12.00;99.90;;;;;;5072011;28;20039;-68
2023/11/19 02:06:49;;;;;;;40.40;7.28;;;12.10;99.90;;;;;;5068588;28;20054;-69
2023/11/19 02:09:19;;;;;;;39.92;6.03;;;12.10;99.90;;;;;;5068653;28;20078;-68
2023/11/19 02:11:47;;;;;;;39.28;7.25;;;12.10;99.90;;;;;;5068970;28;20044;-68
2023/11/19 02:14:13;;;;;;;35.95;5.65;;;12.10;99.90;;;;;;5070490;28;20138;-68
2023/11/19 02:16:38;;;;;;;37.80;5.70;;;12.10;99.90;;;;;;5069130;28;20040;-68
2023/11/19 02:19:06;;;;;;;37.88;6.53;;;12.30;99.90;;;;;;5070058;28;20048;-68
2023/11/19 02:21:31;;;;;;;38.90;6.60;;;12.20;99.90;;;;;;5070023;28;20134;-68
2023/11/19 02:23:57;;;;;;;39.85;5.90;;;12.10;99.90;;;;;;5071130;28;20570;-69
2023/11/19 02:26:39;;;;;;;37.88;7.38;;;12.20;99.90;;;;;;5068745;28;20041;-69
2023/11/19 02:29:06;;;;;;;36.33;6.47;;;12.10;99.90;;;;;;5067100;28;20044;-68
2023/11/19 02:31:32;;;;;;;38.75;6.72;;;12.10;99.90;;;;;;5070127;28;20475;-68
2023/11/19 02:34:00;;;;;;;40.22;5.93;;;12.10;99.90;;;;;;5070028;28;20051;-68
2023/11/19 02:36:25;;;;;;;37.13;6.35;;;12.30;99.90;;;;;;5068104;28;20578;-68
2023/11/19 02:38:51;;;;;;;38.65;5.88;;;12.10;99.90;;;;;;5068849;28;20044;-68
2023/11/19 02:41:16;;;;;;;38.08;5.75;;;12.10;99.90;;;;;;5071400;28;20067;-68
2023/11/19 02:43:42;;;;;;;31.50;5.55;;;12.60;99.90;;;;;;5069452;28;20043;-69
2023/11/19 02:46:08;;;;;;;34.72;5.13;;;12.40;99.90;;;;;;5067364;28;20051;-69
2023/11/19 02:48:37;;;;;;;35.33;5.55;;;12.20;99.90;;;;;;5067372;28;20166;-69
2023/11/19 02:51:03;;;;;;;30.35;4.80;;;12.10;99.90;;;;;;5070794;28;20044;-68
2023/11/19 02:53:32;;;;;;;32.03;6.13;;;12.10;99.90;;;;;;5051774;28;20051;-68
2023/11/19 02:56:06;;;;;;;32.33;6.03;;;12.10;99.90;;;;;;5065351;28;20058;-69
2023/11/19 02:58:32;;;;;;;35.00;5.80;;;12.10;99.90;;;;;;5067233;28;20135;-69
2023/11/19 03:00:59;;;;;;;35.80;5.60;;;12.10;99.90;;;;;;5068005;28;20143;-68
2023/11/19 03:03:28;;;;;;;27.00;5.35;;;12.00;99.90;;;;;;5071479;28;20051;-68
2023/11/19 03:05:55;;;;;;;32.92;4.95;;;12.00;99.90;;;;;;5067398;28;20055;-68
2023/11/19 03:08:20;;;;;;;31.45;5.20;;;12.00;99.90;;;;;;5068047;28;20041;-68
2023/11/19 03:10:46;;;;;;;33.92;4.70;;;12.00;99.90;;;;;;5069424;28;20454;-68
2023/11/19 03:13:17;;;;;;;30.40;5.97;;;12.00;99.90;;;;;;5071273;28;20101;-69
2023/11/19 03:15:42;;;;;;;27.85;5.32;;;11.90;99.90;;;;;;5067851;28;20039;-68
2023/11/19 03:18:08;;;;;;;35.67;6.00;;;12.10;99.90;;;;;;5066435;28;20402;-69
2023/11/19 03:20:34;;;;;;;32.85;4.90;;;11.90;99.90;;;;;;5069178;28;20029;-68
2023/11/19 03:23:01;;;;;;;38.08;7.93;;;11.90;99.90;;;;;;5068069;28;20045;-68
2023/11/19 03:25:32;;;;;;;28.98;4.85;;;11.90;99.90;;;;;;5067558;28;20123;-68
2023/11/19 03:27:58;;;;;;;27.63;4.90;;;11.90;99.90;;;;;;5067965;28;20072;-68
2023/11/19 03:30:24;;;;;;;32.58;6.30;;;11.90;99.90;;;;;;5068303;28;20514;-68
2023/11/19 03:32:50;;;;;;;31.17;5.47;;;11.90;99.90;;;;;;5070192;28;20053;-68
2023/11/19 03:35:16;;;;;;;28.80;4.93;;;11.90;99.90;;;;;;5066944;28;20051;-69
2023/11/19 03:37:43;;;;;;;33.85;7.07;;;12.00;99.90;;;;;;5069279;28;20047;-69
2023/11/19 03:40:10;;;;;;;41.08;7.70;;;12.00;99.90;;;;;;5071968;28;20048;-69
2023/11/19 03:42:35;;;;;;;34.83;6.35;;;11.90;99.90;;;;;;5067588;28;20048;-68
2023/11/19 03:45:01;;;;;;;34.83;6.00;;;11.90;99.90;;;;;;5067941;28;20078;-68
2023/11/19 03:47:28;;;;;;;32.80;6.35;;;12.00;99.90;;;;;;5072358;28;20050;-68
2023/11/19 03:49:54;;;;;;;31.55;5.70;;;11.90;99.90;;;;;;5068375;28;20463;-68
2023/11/19 03:52:20;;;;;;;42.22;5.97;;;12.00;99.90;;;;;;5068916;28;20032;-68
2023/11/19 03:54:45;;;;;;;42.92;6.65;;;11.90;99.90;;;;;;5064966;28;20111;-68
2023/11/19 03:57:12;;;;;;;33.50;5.28;;;12.00;99.90;;;;;;5067215;28;20364;-69
2023/11/19 03:59:39;;;;;;;39.80;5.82;;;11.90;99.90;;;;;;5064634;28;20036;-68
2023/11/19 04:02:04;;;;;;;37.45;5.82;;;12.10;99.90;;;;;;5067253;28;20062;-68
2023/11/19 04:04:30;;;;;;;35.70;7.07;;;11.90;99.90;;;;;;5069696;28;20044;-68
2023/11/19 04:06:56;;;;;;;38.63;6.93;;;11.90;99.90;;;;;;5068263;28;20041;-69
2023/11/19 04:09:22;;;;;;;36.22;6.43;;;11.80;99.90;;;;;;5064862;28;20558;-68
2023/11/19 04:11:48;;;;;;;39.58;6.47;;;11.70;99.90;;;;;;5067669;28;20039;-68
2023/11/19 04:14:14;;;;;;;34.35;6.95;;;11.80;99.90;;;;;;5068079;28;20044;-69
2023/11/19 04:16:40;;;;;;;33.10;7.38;;;11.70;99.90;;;;;;5066442;28;20071;-69
2023/11/19 04:19:06;;;;;;;38.97;7.97;;;11.90;99.90;;;;;;5066630;28;20093;-68
2023/11/19 04:21:32;;;;;;;33.40;6.38;;;11.70;99.90;;;;;;5065466;28;20363;-68
2023/11/19 04:23:58;;;;;;;38.47;5.90;;;11.70;99.90;;;;;;5067511;28;20073;-68
2023/11/19 04:26:24;;;;;;;37.47;6.40;;;11.60;99.90;;;;;;5083680;28;20131;-69
2023/11/19 04:28:49;;;;;;;42.33;8.48;;;11.50;99.90;;;;;;5067482;28;20905;-68
2023/11/19 04:31:18;;;;;;;39.28;7.22;;;11.60;99.90;;;;;;5068400;28;20127;-68
2023/11/19 04:33:44;;;;;;;47.33;7.25;;;11.50;99.90;;;;;;5066052;28;20047;-68
2023/11/19 04:36:10;;;;;;;36.47;6.22;;;11.60;99.90;;;;;;5098732;28;20044;-69
2023/11/19 04:38:38;;;;;;;33.53;6.30;;;11.60;99.90;;;;;;5068404;28;20915;-69
2023/11/19 04:41:05;;;;;;;33.80;6.88;;;11.60;99.90;;;;;;5069486;28;20040;-69
2023/11/19 04:43:32;;;;;;;36.90;6.85;;;11.50;99.90;;;;;;5068138;28;20517;-68
2023/11/19 04:45:57;;;;;;;35.50;7.35;;;11.50;99.90;;;;;;5066925;28;20063;-68
2023/11/19 04:48:23;;;;;;;41.03;6.30;;;11.50;99.90;;;;;;5067163;28;20033;-68
2023/11/19 04:50:51;;;;;;;33.60;6.90;;;11.60;99.90;;;;;;5069309;28;20383;-68
2023/11/19 04:53:17;;;;;;;42.63;7.35;;;11.50;99.90;;;;;;5066571;28;20048;-68
2023/11/19 04:55:42;;;;;;;47.05;8.55;;;11.50;99.90;;;;;;5083189;28;20048;-69
2023/11/19 04:58:09;;;;;;;37.65;7.65;;;11.50;99.90;;;;;;5069589;28;20043;-68
2023/11/19 05:00:34;;;;;;;38.00;6.22;;;11.50;99.90;;;;;;5067417;28;20040;-69
2023/11/19 05:03:00;;;;;;;38.15;6.47;;;11.50;99.90;;;;;;5067070;28;20483;-69
2023/11/19 05:05:25;;;;;;;44.00;7.70;;;11.40;99.90;;;;;;5098693;28;20082;-68
2023/11/19 05:07:51;;;;;;;41.78;7.32;;;11.30;99.90;;;;;;5069014;28;21524;-68
2023/11/19 05:10:17;;;;;;;38.33;7.82;;;11.30;99.90;;;;;;5050547;28;20029;-69
2023/11/19 05:12:42;;;;;;;39.38;7.88;;;11.30;99.90;;;;;;5070343;28;20436;-69
2023/11/19 05:15:08;;;;;;;43.28;6.95;;;11.20;99.90;;;;;;5064539;28;20040;-69
2023/11/19 05:17:34;;;;;;;34.35;7.00;;;11.30;99.90;;;;;;5069657;28;21001;-69
2023/11/19 05:19:59;;;;;;;40.53;8.63;;;11.30;99.90;;;;;;5069047;28;20070;-69
2023/11/19 05:22:25;;;;;;;39.17;7.55;;;11.20;99.90;;;;;;5068439;28;20040;-69
2023/11/19 05:24:51;;;;;;;45.45;6.60;;;11.30;99.90;;;;;;5068537;28;20041;-68
2023/11/19 05:27:17;;;;;;;38.25;7.28;;;11.30;99.90;;;;;;5069975;28;20029;-68
2023/11/19 05:29:43;;;;;;;33.08;7.68;;;11.30;99.90;;;;;;5065126;28;20517;-68
2023/11/19 05:32:10;;;;;;;31.20;6.53;;;11.30;99.90;;;;;;5095295;28;20036;-68
2023/11/19 05:34:35;;;;;;;36.35;7.55;;;11.30;99.90;;;;;;5069900;28;20090;-68
2023/11/19 05:37:01;;;;;;;40.25;8.35;;;11.30;99.90;;;;;;5070339;28;20049;-69
2023/11/19 05:39:28;;;;;;;39.28;7.72;;;11.30;99.90;;;;;;5069398;28;20544;-68
2023/11/19 05:41:53;;;;;;;33.08;7.07;;;11.30;99.90;;;;;;5064595;28;20047;-68
2023/11/19 05:44:19;;;;;;;41.42;6.68;;;11.30;99.90;;;;;;5068312;28;20041;-68
2023/11/19 05:46:45;;;;;;;35.55;7.72;;;11.30;99.90;;;;;;5064396;28;20619;-68
2023/11/19 05:49:11;;;;;;;33.47;6.68;;;11.40;99.90;;;;;;5067040;28;20032;-68
2023/11/19 05:51:40;;;;;;;42.63;8.80;;;11.30;99.90;;;;;;5083146;28;20077;-69
2023/11/19 05:54:07;;;;;;;35.30;6.22;;;11.40;99.90;;;;;;5066548;28;20040;-69
2023/11/19 05:56:33;;;;;;;47.05;8.73;;;11.40;99.90;;;;;;5069267;28;20424;-69
2023/11/19 05:59:06;;;;;;;37.38;7.43;;;11.30;99.90;;;;;;5069183;28;20127;-69
2023/11/19 06:01:35;;;;;;;38.35;8.60;;;11.30;99.90;;;;;;5067525;28;20036;-69
2023/11/19 06:04:01;;;;;;;34.13;6.35;;;11.30;99.90;;;;;;5068415;28;20494;-69
2023/11/19 06:06:27;;;;;;;34.35;6.55;;;11.30;99.90;;;;;;5067682;28;20054;-69
2023/11/19 06:08:53;;;;;;;34.30;8.00;;;11.20;99.90;;;;;;5065795;28;20469;-68
2023/11/19 06:11:20;;;;;;;41.40;7.25;;;11.20;99.90;;;;;;5069479;28;20032;-68
2023/11/19 06:13:50;;;;;;;35.60;6.57;;;11.10;99.90;;;;;;5066821;28;20055;-68
2023/11/19 06:16:15;;;;;;;34.83;6.50;;;11.10;99.90;;;;;;5066316;28;20051;-68
2023/11/19 06:18:41;;;;;;;40.58;7.38;;;11.10;99.90;;;;;;5096907;28;20048;-69
2023/11/19 06:21:07;;;;;;;35.42;6.82;;;11.30;99.90;;;;;;5066799;28;20059;-69
2023/11/19 06:23:32;;;;;;;36.90;6.43;;;11.10;99.90;;;;;;5068653;28;20352;-69
2023/11/19 06:25:58;;;;;;;36.05;7.05;;;11.10;99.90;;;;;;5050978;28;20029;-69
2023/11/19 06:28:25;;;;;;;32.97;6.65;;;11.10;99.90;;;;;;5068359;28;20393;-69
2023/11/19 06:30:50;;;;;;;33.28;6.53;;;11.10;99.90;;;;;;5050384;28;20032;-69
2023/11/19 06:33:16;;;;;;;42.15;7.80;;;11.00;99.90;;;;;;5081374;28;20568;-69
2023/11/19 06:35:41;;;;;;;37.25;8.20;;;11.10;99.90;;;;;;5064730;28;20526;-69
2023/11/19 06:38:07;;;;;;;34.72;6.50;;;11.10;99.90;;;;;;5067099;28;20048;-69
2023/11/19 06:40:34;;;;;;;34.85;7.20;;;11.00;99.90;;;;;;5066720;28;20044;-69
2023/11/19 06:43:00;;;;;;;38.30;6.65;;;11.00;99.90;;;;;;5099044;28;20045;-69
2023/11/19 06:45:26;;;;;;;39.78;8.23;;;11.00;99.90;;;;;;5095626;28;20055;-69
2023/11/19 06:47:52;;;;;;;39.15;7.05;;;11.00;99.90;;;;;;5067693;28;20043;-69
2023/11/19 06:50:17;;;;;;;44.55;6.75;;;11.10;99.90;;;;;;5068858;28;20032;-69
2023/11/19 06:52:43;;;;;;;38.90;7.75;;;11.10;99.90;;;;;;5071733;28;20040;-69
2023/11/19 06:55:09;;;;;;;44.50;8.65;;;11.10;99.90;;;;;;5066094;28;20039;-69
2023/11/19 06:57:34;;;;;;;36.08;7.00;;;11.10;99.90;;;;;;5068290;28;22205;-69
2023/11/19 07:00:00;;;;;;;43.00;8.40;;;11.10;99.90;;;;;;5066844;28;20512;-69
2023/11/19 07:02:26;;;;;;;36.05;8.13;;;11.10;99.90;;;;;;5064689;28;20032;-69
2023/11/19 07:04:52;;;;;;;39.20;6.72;;;11.20;99.90;;;;;;5067434;28;20036;-69
2023/11/19 07:07:17;;;;;;;40.83;7.40;;;11.10;99.90;;;;;;5066426;28;20052;-69
2023/11/19 07:09:43;;;;;;;41.03;9.30;;;11.20;99.90;;;;;;5062005;28;20402;-69
2023/11/19 07:12:09;;;;;;;35.70;6.45;;;11.20;99.90;;;;;;5071007;28;20029;-69
2023/11/19 07:14:34;;;;;;;32.78;6.55;;;11.20;99.90;;;;;;5070715;28;20040;-69
2023/11/19 07:17:00;;;;;;;46.17;10.70;;;11.20;99.90;;;;;;5068830;28;20052;-69
2023/11/19 07:19:26;;;;;;;40.85;6.72;;;11.30;99.90;;;;;;5067983;28;20040;-69
2023/11/19 07:21:54;;;;;;;39.03;7.40;;;11.20;99.90;;;;;;5069585;28;20487;-69
2023/11/19 07:24:21;;;;;;;38.35;7.35;;;11.30;99.90;;;;;;5066445;28;20052;-69
2023/11/19 07:26:47;;;;;;;32.10;6.53;;;11.30;99.90;;;;;;5068315;28;20047;-68
2023/11/19 07:29:15;;;;;;;31.35;5.80;;;11.20;99.90;;;;;;5070018;28;20128;-68
2023/11/19 07:31:40;;;;;;;32.85;6.25;;;11.10;99.90;;;;;;5098085;28;20580;-69
2023/11/19 07:34:06;;;;;;;35.80;7.55;;;11.20;99.90;;;;;;5070680;28;20115;-69
2023/11/19 07:36:32;;;;;;;34.45;5.65;;;11.20;99.90;;;;;;5066331;28;20140;-69
2023/11/19 07:38:58;;;;;;;41.78;7.68;;;11.20;99.90;;;;;;5063019;28;20063;-69
2023/11/19 07:41:25;;;;;;;41.03;8.20;;;11.10;99.90;;;;;;5067919;28;20053;-69
2023/11/19 07:43:51;;;;;;;43.20;6.50;;;11.10;99.90;;;;;;5100609;27;20044;-68
2023/11/19 07:46:19;;;;;;;35.72;7.05;;;11.20;99.90;;;;;;5066281;28;20044;-68
2023/11/19 07:48:46;;;;;;;35.60;6.47;;;11.10;99.90;;;;;;5066764;28;20119;-72
2023/11/19 07:51:12;;;;;;;32.63;7.13;;;11.20;99.90;;;;;;5066605;28;20041;-71
2023/11/19 07:53:39;;;;;;;45.00;8.20;;;11.20;99.90;;;;;;5067261;28;20102;-70
2023/11/19 07:56:05;;;;;;;41.90;8.73;;;11.20;99.90;;;;;;5066077;28;20079;-68
2023/11/19 07:58:31;;;;;;;33.22;6.55;;;11.20;99.90;;;;;;5065120;28;20086;-68
2023/11/19 08:00:57;;;;;;;37.08;6.50;;;11.20;99.90;;;;;;5094006;28;20052;-68
2023/11/19 08:03:22;;;;;;;36.65;6.28;;;11.20;99.90;;;;;;5069611;28;20036;-68
2023/11/19 08:05:48;;;;;;;44.70;7.95;;;11.20;99.90;;;;;;5066183;28;20076;-68
2023/11/19 08:08:14;;;;;;;38.45;7.55;;;11.20;99.90;;;;;;5066704;28;20040;-68
2023/11/19 08:10:40;;;;;;;33.78;7.90;;;11.30;99.90;;;;;;5065740;28;20080;-68
2023/11/19 08:13:07;;;;;;;33.55;6.22;;;11.20;99.90;;;;;;5063329;28;20170;-68
2023/11/19 08:15:32;;;;;;;40.25;7.30;;;11.50;99.90;;;;;;5063770;28;20041;-68
2023/11/19 08:17:58;;;;;;;45.53;9.02;;;11.20;99.90;;;;;;5063723;28;20502;-69
2023/11/19 08:20:24;;;;;;;40.17;7.65;;;11.20;99.90;;;;;;5078892;28;20036;-68
2023/11/19 08:22:49;;;;;;;33.75;7.15;;;11.20;99.90;;;;;;5065297;28;20127;-68
2023/11/19 08:25:15;;;;;;;38.58;7.70;;;11.30;99.90;;;;;;5066762;28;20033;-67
2023/11/19 08:27:41;;;;;;;42.20;7.88;;;11.30;99.90;;;;;;5066765;28;20114;-67
2023/11/19 08:30:07;;;;;;;41.15;7.63;;;11.30;99.90;;;;;;5066378;28;20049;-67
2023/11/19 08:32:34;;;;;;;37.25;6.88;;;11.30;99.90;;;;;;5066096;28;20045;-67
2023/11/19 08:34:59;;;;;;;29.35;6.00;;;11.30;99.90;;;;;;5097817;28;20052;-67
2023/11/19 08:37:25;;;;;;;34.92;8.52;;;11.40;99.90;;;;;;5065438;28;20049;-68
2023/11/19 08:39:51;;;;;;;41.40;7.88;;;11.30;99.90;;;;;;5065435;28;20063;-68
2023/11/19 08:42:17;;;;;;;39.15;6.60;;;11.40;99.90;;;;;;5068039;28;20056;-68
2023/11/19 08:44:46;;;;;;;39.83;8.23;;;11.30;99.90;;;;;;5063029;28;20082;-68
2023/11/19 08:47:12;;;;;;;30.77;5.68;;;11.30;99.90;;;;;;5061672;28;20043;-68
2023/11/19 08:49:39;;;;;;;38.92;7.00;;;11.30;99.90;;;;;;5062869;28;20040;-68
2023/11/19 08:52:07;;;;;;;43.70;6.85;;;11.40;99.90;;;;;;5068220;28;20048;-68
2023/11/19 08:54:33;;;;;;;41.90;7.60;;;11.30;99.90;;;;;;5067826;28;20040;-68
2023/11/19 08:56:59;;;;;;;39.17;7.10;;;11.30;99.90;;;;;;5065789;28;20045;-68
2023/11/19 08:59:25;;;;;;;34.00;6.15;;;11.40;99.90;;;;;;5063791;28;20131;-68
2023/11/19 09:01:51;;;;;;;37.50;7.07;;;11.40;99.90;;;;;;5064425;28;20283;-68
2023/11/19 09:04:16;;;;;;;35.25;6.60;;;11.70;99.90;;;;;;5065267;28;20040;-68
2023/11/19 09:06:42;;;;;;;39.88;7.75;;;11.50;99.90;;;;;;5063384;28;20036;-68
2023/11/19 09:09:09;;;;;;;35.40;7.43;;;11.50;99.90;;;;;;5066137;28;20032;-68
2023/11/19 09:11:35;;;;;;;33.70;6.60;;;11.50;99.90;;;;;;5066964;28;20040;-68
2023/11/19 09:14:00;;;;;;;34.13;6.70;;;11.50;99.90;;;;;;5064201;28;20512;-68
2023/11/19 09:16:26;;;;;;;31.42;6.53;;;11.70;99.90;;;;;;5067319;28;20415;-68
2023/11/19 09:18:51;;;;;;;31.58;6.35;;;11.60;99.90;;;;;;5061349;28;20097;-68
2023/11/19 09:21:19;;;;;;;35.13;7.63;;;11.60;99.90;;;;;;5065543;28;20047;-68
2023/11/19 09:23:47;;;;;;;30.38;6.50;;;12.00;99.90;;;;;;5062495;28;20053;-68
2023/11/19 09:26:13;;;;;;;32.95;7.55;;;11.70;99.90;;;;;;5063180;28;20037;-68
2023/11/19 09:28:39;;;;;;;37.13;6.63;;;11.80;99.90;;;;;;5066250;28;20475;-68
2023/11/19 09:31:16;;;;;;;33.60;6.13;;;11.70;99.90;;;;;;5063079;28;20093;-68
2023/11/19 09:33:42;;;;;;;49.78;9.70;;;11.70;99.90;;;;;;5064472;28;20048;-68
2023/11/19 09:36:08;;;;;;;31.90;6.47;;;11.90;99.90;;;;;;5070122;28;20058;-68
2023/11/19 09:38:38;;;;;;;31.92;6.43;;;11.70;99.90;;;;;;5097957;28;20044;-68
2023/11/19 09:41:08;;;;;;;43.13;7.10;;;11.90;99.90;;;;;;5067323;28;20402;-68
2023/11/19 09:43:36;;;;;;;36.67;8.43;;;11.90;99.90;;;;;;5068048;28;20692;-68
2023/11/19 09:46:06;;;;;;;42.10;7.88;;;11.90;99.90;;;;;;5069974;28;20032;-68
2023/11/19 09:48:37;;;;;;;36.17;6.38;;;11.90;99.90;;;;;;5069130;28;20048;-68
2023/11/19 09:51:04;;;;;;;33.17;7.82;;;11.90;99.90;;;;;;5065469;28;20090;-68
2023/11/19 09:53:30;;;;;;;36.45;7.78;;;11.90;99.90;;;;;;5070591;28;20117;-68
2023/11/19 09:55:56;;;;;;;33.28;6.15;;;12.00;99.90;;;;;;5102612;27;20037;-68
2023/11/19 09:58:22;;;;;;;30.20;7.13;;;11.90;99.90;;;;;;5070775;28;20102;-68
2023/11/19 10:00:49;;;;;;;34.50;6.00;;;11.90;99.90;;;;;;5068110;28;20506;-68
2023/11/19 10:03:16;;;;;;;32.58;5.88;;;12.10;99.90;;;;;;5097340;28;20609;-68
2023/11/19 10:05:41;;;;;;;40.40;7.72;;;11.90;99.90;;;;;;5069508;28;20060;-68
2023/11/19 10:08:07;;;;;;;32.40;6.07;;;12.00;99.90;;;;;;5070193;28;20122;-68
2023/11/19 10:10:34;;;;;;;35.92;5.57;;;11.80;99.90;;;;;;5067297;28;20041;-68
2023/11/19 10:13:00;;;;;;;34.60;7.05;;;11.80;99.90;;;;;;5099533;28;20135;-68
2023/11/19 10:15:26;;;;;;;39.67;7.07;;;11.80;99.90;;;;;;5066856;28;20057;-68
2023/11/19 10:17:58;;;;;;;33.40;6.72;;;11.80;99.90;;;;;;5068455;28;20045;-68
2023/11/19 10:20:23;;;;;;;31.55;6.05;;;11.80;99.90;;;;;;5049709;28;20089;-69
2023/11/19 10:22:53;;;;;;;39.42;7.13;;;11.80;99.90;;;;;;5069449;28;20044;-68
2023/11/19 10:25:26;;;;;;;33.70;5.85;;;11.80;99.90;;;;;;5097895;28;20044;-68
2023/11/19 10:27:53;;;;;;;37.72;8.40;;;11.80;99.90;;;;;;5070234;28;20033;-68
2023/11/19 10:30:29;;;;;;;31.13;6.25;;;11.80;99.90;;;;;;5069038;28;20040;-68
2023/11/19 10:33:17;;;;;;;41.78;9.02;;;11.80;99.90;;;;;;5066660;28;20050;-69
2023/11/19 10:35:57;;;;;;;36.47;6.28;;;11.70;99.90;;;;;;5065325;28;20059;-68
2023/11/19 10:38:23;;;;;;;27.23;5.13;;;11.60;99.90;;;;;;5083868;28;20063;-68
2023/11/19 10:40:52;;;;;;;30.40;7.72;;;11.70;99.90;;;;;;5065291;28;20495;-68
2023/11/19 10:43:22;;;;;;;28.48;5.95;;;11.70;99.90;;;;;;5099683;28;20044;-68
2023/11/19 10:45:48;;;;;;;30.02;7.03;;;11.70;99.90;;;;;;5065970;28;20040;-68
2023/11/19 10:48:14;;;;;;;30.25;6.93;;;11.70;99.90;;;;;;5051704;28;20403;-68
2023/11/19 10:50:41;;;;;;;28.83;5.78;;;11.80;99.90;;;;;;5065997;28;20152;-68
2023/11/19 10:53:09;;;;;;;32.53;6.75;;;11.80;99.90;;;;;;5068242;28;20050;-68
2023/11/19 10:55:40;;;;;;;29.30;6.65;;;11.80;99.90;;;;;;5069674;28;20127;-68
2023/11/19 10:58:09;;;;;;;29.95;5.65;;;12.00;99.90;;;;;;5068680;28;20036;-68
2023/11/19 11:00:47;;;;;;;33.67;5.85;;;12.00;99.90;;;;;;5068501;28;20040;-69
2023/11/19 11:03:25;;;;;;;38.10;7.30;;;11.90;99.90;;;;;;5065464;28;20040;-69
2023/11/19 11:05:52;;;;;;;34.25;6.18;;;12.00;99.90;;;;;;5098110;28;20040;-69
2023/11/19 11:08:20;;;;;;;34.25;6.93;;;12.00;99.90;;;;;;5064588;28;20043;-69
2023/11/19 11:10:52;;;;;;;32.90;5.95;;;11.90;99.90;;;;;;5065697;28;20036;-69
2023/11/19 11:13:18;;;;;;;32.90;5.70;;;11.90;99.90;;;;;;5066749;28;20051;-69
2023/11/19 11:15:46;;;;;;;34.88;5.18;;;11.90;99.90;;;;;;5096129;27;20375;-68
2023/11/19 11:18:13;;;;;;;35.22;6.88;;;11.80;99.90;;;;;;5050422;28;20037;-68
2023/11/19 11:20:39;;;;;;;44.67;7.32;;;11.80;99.90;;;;;;5067461;28;20040;-68
2023/11/19 11:23:30;;;;;;;33.17;7.65;;;11.80;99.90;;;;;;5069300;28;20045;-68
2023/11/19 11:26:23;;;;;;;42.63;7.85;;;11.80;99.90;;;;;;5067595;28;20384;-68
2023/11/19 11:29:09;;;;;;;32.83;5.00;;;11.80;99.90;;;;;;5067391;28;20086;-68
2023/11/19 11:31:49;;;;;;;33.72;5.97;;;11.80;99.90;;;;;;5066795;28;20094;-68
2023/11/19 11:34:50;;;;;;;33.65;7.00;;;11.80;99.90;;;;;;5068148;28;20135;-68
2023/11/19 11:37:23;;;;;;;35.53;6.38;;;11.80;99.90;;;;;;5065279;28;20440;-68
2023/11/19 11:39:50;;;;;;;35.58;6.55;;;11.80;99.90;;;;;;5080270;28;20487;-68
2023/11/19 11:42:22;;;;;;;29.73;6.32;;;11.80;99.90;;;;;;5068114;28;20058;-68
2023/11/19 11:45:13;;;;;;;26.48;5.32;;;12.10;99.90;;;;;;5065586;28;20048;-68
2023/11/19 11:47:42;;;;;;;32.95;7.25;;;11.70;99.90;;;;;;5062668;28;20036;-69
2023/11/19 11:50:18;;;;;;;40.60;6.43;;;11.70;99.90;;;;;;5065581;28;20565;-69
2023/11/19 11:52:59;;;;;;;39.08;7.30;;;11.70;99.90;;;;;;5067737;28;20047;-69
2023/11/19 11:55:36;;;;;;;39.72;7.07;;;11.70;99.90;;;;;;5066272;28;20090;-68
2023/11/19 11:58:02;;;;;;;39.33;5.63;;;11.60;99.90;;;;;;5068395;28;20103;-68
2023/11/19 12:00:31;;;;;;;35.25;5.90;;;11.60;99.90;;;;;;5064704;28;20050;-68
2023/11/19 12:03:00;;;;;;;38.60;5.88;;;11.60;99.90;;;;;;5067218;28;20114;-69
2023/11/19 12:05:26;;;;;;;42.03;6.72;;;11.60;99.90;;;;;;5099056;28;20032;-68
2023/11/19 12:08:06;;;;;;;34.22;6.60;;;11.60;99.90;;;;;;5068681;28;20613;-68
2023/11/19 12:10:37;;;;;;;44.33;6.95;;;11.70;99.90;;;;;;5061583;28;20078;-68
2023/11/19 12:13:08;;;;;;;32.55;5.80;;;11.60;99.90;;;;;;5065828;28;20040;-68
2023/11/19 12:15:53;;;;;;;42.25;6.72;;;11.60;99.90;;;;;;5066128;28;20135;-69
2023/11/19 12:18:19;;;;;;;36.42;6.78;;;11.70;99.90;;;;;;5094725;28;20067;-68
2023/11/19 12:20:45;;;;;;;31.65;5.55;;;11.60;99.90;;;;;;5062330;28;20032;-68
2023/11/19 12:23:11;;;;;;;29.85;5.40;;;11.50;99.90;;;;;;5063766;28;20387;-68
2023/11/19 12:25:37;;;;;;;39.08;5.78;;;11.60;99.90;;;;;;5063616;28;20605;-69
2023/11/19 12:28:04;;;;;;;38.88;6.78;;;11.50;99.90;;;;;;5064576;28;20050;-68
2023/11/19 12:30:30;;;;;;;30.55;6.20;;;11.50;99.90;;;;;;5062136;28;20066;-68
2023/11/19 12:32:55;;;;;;;34.50;5.80;;;11.60;99.90;;;;;;5064384;28;20037;-68
2023/11/19 12:35:22;;;;;;;30.45;4.90;;;11.60;99.90;;;;;;5067631;28;20075;-68
2023/11/19 12:37:52;;;;;;;37.78;6.60;;;11.50;99.90;;;;;;5065507;28;20043;-68